createdAt,value
2018-04-07T00:00:55.757Z,10.63
2018-04-07T00:03:24.915Z,10.97
2018-04-07T00:05:54.060Z,10.60
2018-04-07T00:08:23.230Z,10.69
2018-04-07T00:10:52.411Z,10.57
2018-04-07T00:13:21.705Z,10.83
2018-04-07T00:15:50.745Z,10.50
2018-04-07T00:18:19.800Z,10.53
2018-04-07T00:20:48.820Z,10.49
2018-04-07T00:23:17.999Z,10.49
2018-04-07T00:25:47.157Z,10.32
2018-04-07T00:28:16.194Z,10.29
2018-04-07T00:30:45.221Z,10.42
2018-04-07T00:33:14.392Z,10.41
2018-04-07T00:35:43.702Z,10.54
2018-04-07T00:38:12.723Z,10.39
2018-04-07T00:40:41.819Z,10.32
2018-04-07T00:43:11.045Z,10.61
2018-04-07T00:45:40.133Z,10.49
2018-04-07T00:48:09.305Z,10.42
2018-04-07T00:50:38.454Z,10.27
2018-04-07T00:53:07.411Z,10.29
2018-04-07T00:55:36.618Z,10.13
2018-04-07T00:58:06.108Z,10.24
2018-04-07T01:00:35.148Z,10.13
2018-04-07T01:03:04.214Z,10.18
2018-04-07T01:05:33.316Z,10.08
2018-04-07T01:08:02.439Z,10.23
2018-04-07T01:10:31.619Z,10.03
2018-04-07T01:13:00.661Z,10.36
2018-04-07T01:15:29.713Z,10.08
2018-04-07T01:17:58.773Z,10.17
2018-04-07T01:20:28.013Z,9.90
2018-04-07T01:22:57.427Z,9.93
2018-04-07T01:25:26.502Z,9.96
2018-04-07T01:27:55.658Z,10.45
2018-04-07T01:30:25.029Z,10.28
2018-04-07T01:32:54.215Z,10.07
2018-04-07T01:35:23.281Z,10.25
2018-04-07T01:37:52.315Z,10.34
2018-04-07T01:40:21.301Z,10.19
2018-04-07T01:42:50.392Z,10.00
2018-04-07T01:45:19.561Z,10.08
2018-04-07T01:47:48.869Z,9.82
2018-04-07T01:50:18.073Z,9.78
2018-04-07T01:52:47.303Z,9.55
2018-04-07T01:55:16.627Z,9.44
2018-04-07T01:57:45.727Z,9.41
2018-04-07T02:00:14.718Z,9.70
2018-04-07T02:02:43.835Z,9.92
2018-04-07T02:05:12.960Z,9.74
2018-04-07T02:07:42.060Z,9.84
2018-04-07T02:10:11.218Z,9.61
2018-04-07T02:12:40.418Z,9.46
2018-04-07T02:15:09.880Z,9.37
2018-04-07T02:17:38.966Z,9.36
2018-04-07T02:20:08.092Z,9.35
2018-04-07T02:22:37.253Z,9.27
2018-04-07T02:25:06.386Z,9.13
2018-04-07T02:27:35.874Z,9.03
2018-04-07T02:30:04.866Z,8.92
2018-04-07T02:32:34.301Z,8.85
2018-04-07T02:35:03.414Z,8.87
2018-04-07T02:37:32.711Z,8.95
2018-04-07T02:40:02.064Z,8.89
2018-04-07T02:42:31.258Z,8.84
2018-04-07T02:45:00.298Z,8.91
2018-04-07T02:47:29.478Z,8.71
2018-04-07T02:49:58.496Z,8.53
2018-04-07T02:52:27.582Z,8.54
2018-04-07T02:54:56.685Z,8.48
2018-04-07T02:57:25.635Z,8.64
2018-04-07T02:59:55.780Z,8.63
2018-04-07T03:02:24.818Z,8.80
2018-04-07T03:04:53.834Z,8.77
2018-04-07T03:07:22.996Z,8.78
2018-04-07T03:09:51.993Z,8.81
2018-04-07T03:12:21.161Z,8.89
2018-04-07T03:14:50.384Z,8.98
2018-04-07T03:17:19.583Z,8.95
2018-04-07T03:19:48.813Z,8.90
2018-04-07T03:22:17.865Z,8.80
2018-04-07T03:24:46.970Z,8.87
2018-04-07T03:27:16.099Z,8.74
2018-04-07T03:29:45.254Z,8.61
2018-04-07T03:32:14.511Z,8.59
2018-04-07T03:34:43.873Z,8.55
2018-04-07T03:37:13.062Z,8.45
2018-04-07T03:39:42.325Z,8.62
2018-04-07T03:42:11.520Z,8.64
2018-04-07T03:44:40.574Z,8.70
2018-04-07T03:47:10.381Z,8.72
2018-04-07T03:49:39.442Z,8.69
2018-04-07T03:52:08.501Z,8.87
2018-04-07T03:54:37.586Z,8.91
2018-04-07T03:57:06.875Z,8.78
2018-04-07T03:59:36.171Z,8.87
2018-04-07T04:02:05.860Z,8.94
2018-04-07T04:04:35.089Z,8.89
2018-04-07T04:07:04.412Z,8.87
2018-04-07T04:09:33.616Z,9.32
2018-04-07T04:12:02.763Z,9.40
2018-04-07T04:14:31.774Z,9.51
2018-04-07T04:17:00.901Z,9.52
2018-04-07T04:19:30.296Z,9.85
2018-04-07T04:21:59.449Z,10.53
2018-04-07T04:24:28.632Z,11.20
2018-04-07T04:26:57.761Z,11.18
2018-04-07T04:29:26.837Z,11.25
2018-04-07T04:31:56.096Z,10.82
2018-04-07T04:34:25.088Z,11.27
2018-04-07T04:36:54.135Z,11.16
2018-04-07T04:39:23.502Z,11.56
2018-04-07T04:41:52.529Z,11.57
2018-04-07T04:44:21.537Z,11.65
2018-04-07T04:46:50.755Z,11.98
2018-04-07T04:49:19.977Z,11.73
2018-04-07T04:51:49.039Z,11.93
2018-04-07T04:54:18.027Z,12.18
2018-04-07T04:56:47.107Z,11.90
2018-04-07T04:59:16.450Z,12.62
2018-04-07T05:01:45.505Z,12.51
2018-04-07T05:04:14.594Z,12.55
2018-04-07T05:06:43.858Z,12.74
2018-04-07T05:09:13.042Z,12.72
2018-04-07T05:11:42.142Z,13.15
2018-04-07T05:14:11.139Z,12.93
2018-04-07T05:16:40.417Z,12.73
2018-04-07T05:19:09.617Z,13.13
2018-04-07T05:21:38.909Z,13.36
2018-04-07T05:24:07.935Z,13.45
2018-04-07T05:26:36.955Z,13.22
2018-04-07T05:29:06.175Z,13.57
2018-04-07T05:31:35.509Z,13.70
2018-04-07T05:34:04.738Z,14.01
2018-04-07T05:36:34.490Z,14.14
2018-04-07T05:39:03.736Z,14.62
2018-04-07T05:41:32.847Z,14.64
2018-04-07T05:44:02.074Z,14.85
2018-04-07T05:46:31.438Z,14.95
2018-04-07T05:49:00.591Z,15.17
2018-04-07T05:51:29.941Z,15.34
2018-04-07T05:53:59.190Z,15.42
2018-04-07T05:56:28.272Z,15.65
2018-04-07T05:58:58.250Z,15.52
2018-04-07T06:01:27.340Z,14.88
2018-04-07T06:03:56.401Z,14.16
2018-04-07T06:06:25.524Z,14.32
2018-04-07T06:08:54.739Z,14.11
2018-04-07T06:11:23.848Z,13.93
2018-04-07T06:13:52.945Z,13.84
2018-04-07T06:16:22.011Z,13.68
2018-04-07T06:18:51.302Z,14.42
2018-04-07T06:21:20.361Z,13.81
2018-04-07T06:23:49.533Z,14.18
2018-04-07T06:26:18.527Z,13.94
2018-04-07T06:28:47.909Z,14.25
2018-04-07T06:31:17.778Z,14.11
2018-04-07T06:33:46.809Z,14.47
2018-04-07T06:36:16.025Z,14.52
2018-04-07T06:38:45.574Z,14.81
2018-04-07T06:41:14.731Z,14.57
2018-04-07T06:43:43.864Z,14.41
2018-04-07T06:46:13.101Z,14.79
2018-04-07T06:48:42.327Z,15.09
2018-04-07T06:51:11.506Z,15.99
2018-04-07T06:53:40.562Z,16.31
2018-04-07T06:56:09.925Z,16.70
2018-04-07T06:58:38.949Z,17.04
2018-04-07T07:01:08.026Z,16.79
2018-04-07T07:03:37.141Z,16.70
2018-04-07T07:06:06.109Z,16.15
2018-04-07T07:08:35.237Z,16.48
2018-04-07T07:11:04.310Z,16.78
2018-04-07T07:13:33.384Z,16.37
2018-04-07T07:16:02.409Z,16.46
2018-04-07T07:18:31.424Z,17.13
2018-04-07T07:21:00.561Z,16.92
2018-04-07T07:23:29.727Z,16.59
2018-04-07T07:25:58.813Z,17.34
2018-04-07T07:28:27.975Z,17.51
2018-04-07T07:30:57.061Z,17.41
2018-04-07T07:33:26.077Z,18.04
2018-04-07T07:35:55.143Z,18.12
2018-04-07T07:38:24.233Z,18.32
2018-04-07T07:40:53.321Z,17.49
2018-04-07T07:43:22.385Z,17.61
2018-04-07T07:45:51.549Z,17.65
2018-04-07T07:48:20.791Z,17.72
2018-04-07T07:50:49.892Z,18.18
2018-04-07T07:53:18.874Z,18.70
2018-04-07T07:55:48.133Z,18.22
2018-04-07T07:58:17.211Z,19.37
2018-04-07T08:00:46.362Z,19.43
2018-04-07T08:03:15.575Z,19.72
2018-04-07T08:05:44.690Z,18.60
2018-04-07T08:08:14.023Z,18.99
2018-04-07T08:10:43.223Z,19.45
2018-04-07T08:13:13.102Z,19.88
2018-04-07T08:15:42.173Z,18.74
2018-04-07T08:18:11.335Z,19.80
2018-04-07T08:20:40.616Z,20.15
2018-04-07T08:23:09.742Z,19.69
2018-04-07T08:25:38.818Z,19.47
2018-04-07T08:28:07.879Z,19.06
2018-04-07T08:30:37.025Z,18.47
2018-04-07T08:33:06.026Z,18.31
2018-04-07T08:35:35.308Z,19.23
2018-04-07T08:38:04.470Z,18.61
2018-04-07T08:40:33.719Z,18.74
2018-04-07T08:43:02.856Z,18.58
2018-04-07T08:45:31.931Z,19.03
2018-04-07T08:48:01.266Z,19.91
2018-04-07T08:50:30.511Z,18.96
2018-04-07T08:52:59.636Z,19.81
2018-04-07T08:55:28.977Z,20.29
2018-04-07T08:57:58.186Z,20.85
2018-04-07T09:00:27.461Z,21.67
2018-04-07T09:02:56.661Z,20.98
2018-04-07T09:05:25.898Z,21.43
2018-04-07T09:07:55.208Z,21.29
2018-04-07T09:10:24.373Z,20.15
2018-04-07T09:12:53.439Z,20.61
2018-04-07T09:15:22.532Z,20.42
2018-04-07T09:17:51.829Z,20.45
2018-04-07T09:20:20.846Z,20.10
2018-04-07T09:22:50.037Z,20.43
2018-04-07T09:25:19.402Z,19.58
2018-04-07T09:27:48.577Z,19.98
2018-04-07T09:30:17.595Z,20.32
2018-04-07T09:32:46.639Z,20.47
2018-04-07T09:35:15.622Z,19.67
2018-04-07T09:37:44.757Z,20.26
2018-04-07T09:40:13.759Z,20.62
2018-04-07T09:42:42.864Z,20.78
2018-04-07T09:45:12.135Z,19.82
2018-04-07T09:47:41.346Z,20.35
2018-04-07T09:50:10.445Z,20.29
2018-04-07T09:52:39.571Z,20.09
2018-04-07T09:55:08.587Z,19.98
2018-04-07T09:57:37.573Z,20.33
2018-04-07T10:00:06.703Z,20.51
2018-04-07T10:02:35.868Z,20.24
2018-04-07T10:05:05.005Z,19.88
2018-04-07T10:07:34.110Z,19.40
2018-04-07T10:10:03.182Z,19.42
2018-04-07T10:12:32.583Z,19.28
2018-04-07T10:15:01.876Z,19.24
2018-04-07T10:17:30.988Z,19.46
2018-04-07T10:20:00.077Z,18.84
2018-04-07T10:22:29.332Z,19.21
2018-04-07T10:24:58.347Z,19.37
2018-04-07T10:27:27.510Z,19.53
2018-04-07T10:29:56.453Z,19.47
2018-04-07T10:32:25.614Z,19.17
2018-04-07T10:34:54.718Z,19.43
2018-04-07T10:37:23.765Z,19.31
2018-04-07T10:39:52.903Z,19.00
2018-04-07T10:42:22.198Z,18.83
2018-04-07T10:44:51.509Z,18.19
2018-04-07T10:47:20.662Z,17.83
2018-04-07T10:49:49.773Z,17.61
2018-04-07T10:52:18.943Z,18.89
2018-04-07T10:54:48.089Z,18.46
2018-04-07T10:57:17.315Z,17.76
2018-04-07T10:59:46.700Z,18.06
2018-04-07T11:02:15.796Z,17.57
2018-04-07T11:04:44.931Z,17.51
2018-04-07T11:07:14.192Z,17.30
2018-04-07T11:09:43.343Z,17.46
2018-04-07T11:12:12.426Z,17.90
2018-04-07T11:14:41.621Z,17.91
2018-04-07T11:17:10.865Z,18.08
2018-04-07T11:19:40.061Z,17.87
2018-04-07T11:22:09.230Z,17.84
2018-04-07T11:24:38.521Z,17.82
2018-04-07T11:27:07.890Z,18.14
2018-04-07T11:29:36.973Z,18.11
2018-04-07T11:32:06.186Z,18.27
2018-04-07T11:34:35.281Z,18.20
2018-04-07T11:37:04.423Z,18.20
2018-04-07T11:39:33.419Z,18.45
2018-04-07T11:42:02.453Z,18.40
2018-04-07T11:44:31.557Z,18.35
2018-04-07T11:47:00.630Z,18.49
2018-04-07T11:49:29.635Z,18.64
2018-04-07T11:51:58.726Z,18.39
2018-04-07T11:54:27.747Z,18.92
2018-04-07T11:56:56.908Z,18.91
2018-04-07T11:59:25.936Z,19.18
2018-04-07T12:01:55.169Z,19.17
2018-04-07T12:04:24.213Z,19.25
2018-04-07T12:06:53.359Z,19.05
2018-04-07T12:09:22.341Z,19.12
2018-04-07T12:11:51.401Z,19.10
2018-04-07T12:14:20.355Z,19.41
2018-04-07T12:16:49.394Z,19.30
2018-04-07T12:19:18.398Z,19.45
2018-04-07T12:21:47.449Z,18.74
2018-04-07T12:24:16.379Z,18.78
2018-04-07T12:26:45.395Z,18.78
2018-04-07T12:29:14.668Z,18.12
2018-04-07T12:31:44.516Z,18.26
2018-04-07T12:34:13.703Z,18.23
2018-04-07T12:36:42.977Z,18.67
2018-04-07T12:39:12.309Z,17.88
2018-04-07T12:41:41.378Z,18.19
2018-04-07T12:44:11.407Z,18.31
2018-04-07T12:46:40.509Z,18.11
2018-04-07T12:49:09.477Z,18.63
2018-04-07T12:51:38.455Z,18.41
2018-04-07T12:54:07.613Z,17.95
2018-04-07T12:56:36.591Z,18.08
2018-04-07T12:59:05.642Z,18.00
2018-04-07T13:01:34.670Z,17.41
2018-04-07T13:04:03.681Z,17.64
2018-04-07T13:06:32.666Z,17.40
2018-04-07T13:09:01.679Z,16.81
2018-04-07T13:11:30.793Z,17.16
2018-04-07T13:14:00.166Z,16.97
2018-04-07T13:16:29.486Z,16.57
2018-04-07T13:18:58.634Z,16.50
2018-04-07T13:21:27.793Z,16.44
2018-04-07T13:23:56.913Z,16.05
2018-04-07T13:26:27.017Z,15.80
2018-04-07T13:28:56.145Z,15.54
2018-04-07T13:31:25.211Z,15.48
2018-04-07T13:33:54.360Z,15.74
2018-04-07T13:36:23.461Z,15.52
2018-04-07T13:38:52.446Z,15.57
2018-04-07T13:41:21.540Z,15.73
2018-04-07T13:43:50.540Z,15.20
2018-04-07T13:46:19.786Z,15.57
2018-04-07T13:48:48.925Z,15.10
2018-04-07T13:51:18.207Z,15.42
2018-04-07T13:53:47.435Z,15.27
2018-04-07T13:56:16.443Z,15.44
2018-04-07T13:58:45.652Z,15.46
2018-04-07T14:01:14.929Z,15.77
2018-04-07T14:03:44.113Z,15.58
2018-04-07T14:06:13.370Z,15.25
2018-04-07T14:08:42.545Z,15.73
2018-04-07T14:11:11.614Z,15.64
2018-04-07T14:13:40.879Z,15.49
2018-04-07T14:16:09.961Z,15.52
2018-04-07T14:18:38.878Z,15.35
2018-04-07T14:21:07.923Z,15.73
2018-04-07T14:23:37.074Z,16.37
2018-04-07T14:26:06.194Z,16.74
2018-04-07T14:28:35.353Z,17.31
2018-04-07T14:31:05.017Z,16.71
2018-04-07T14:33:34.104Z,16.98
2018-04-07T14:36:03.246Z,16.55
2018-04-07T14:38:32.614Z,16.97
2018-04-07T14:41:01.598Z,17.37
2018-04-07T14:43:30.747Z,17.27
2018-04-07T14:45:59.992Z,17.67
2018-04-07T14:48:28.975Z,18.80
2018-04-07T14:50:58.139Z,18.53
2018-04-07T14:53:27.388Z,18.42
2018-04-07T14:55:56.603Z,18.96
2018-04-07T14:58:25.677Z,19.26
2018-04-07T15:00:55.078Z,18.78
2018-04-07T15:03:24.235Z,18.94
2018-04-07T15:05:53.436Z,18.93
2018-04-07T15:08:22.590Z,18.43
2018-04-07T15:10:52.485Z,19.17
2018-04-07T15:13:21.796Z,18.38
2018-04-07T15:15:50.953Z,18.57
2018-04-07T15:18:20.141Z,18.59
2018-04-07T15:20:49.392Z,18.56
2018-04-07T15:23:18.596Z,18.35
2018-04-07T15:25:47.715Z,17.48
2018-04-07T15:28:16.798Z,18.25
2018-04-07T15:30:45.807Z,18.50
2018-04-07T15:33:15.030Z,18.57
2018-04-07T15:35:44.522Z,18.96
2018-04-07T15:38:13.727Z,19.09
2018-04-07T15:40:43.077Z,18.73
2018-04-07T15:43:12.179Z,17.87
2018-04-07T15:45:41.159Z,17.79
2018-04-07T15:48:10.349Z,17.78
2018-04-07T15:50:39.697Z,17.58
2018-04-07T15:53:08.914Z,17.54
2018-04-07T15:55:38.302Z,17.14
2018-04-07T15:58:07.527Z,17.29
2018-04-07T16:00:36.581Z,17.67
2018-04-07T16:03:05.730Z,17.53
2018-04-07T16:05:34.811Z,17.35
2018-04-07T16:08:03.942Z,17.49
2018-04-07T16:10:33.207Z,16.91
2018-04-07T16:13:02.259Z,17.09
2018-04-07T16:15:31.349Z,16.41
2018-04-07T16:18:00.445Z,16.19
2018-04-07T16:20:29.555Z,16.18
2018-04-07T16:22:58.660Z,15.90
2018-04-07T16:25:27.718Z,15.66
2018-04-07T16:27:56.985Z,15.38
2018-04-07T16:30:26.237Z,15.24
2018-04-07T16:32:55.369Z,15.20
2018-04-07T16:35:24.489Z,14.93
2018-04-07T16:37:53.823Z,14.93
2018-04-07T16:40:22.866Z,14.64
2018-04-07T16:42:51.845Z,14.37
2018-04-07T16:45:20.899Z,14.38
2018-04-07T16:47:50.589Z,14.45
2018-04-07T16:50:19.888Z,14.49
2018-04-07T16:52:48.888Z,14.12
2018-04-07T16:55:17.998Z,14.14
2018-04-07T16:57:47.281Z,14.20
2018-04-07T17:00:16.368Z,14.14
2018-04-07T17:02:45.643Z,14.16
2018-04-07T17:05:14.813Z,13.98
2018-04-07T17:07:43.783Z,14.16
2018-04-07T17:10:13.653Z,14.11
2018-04-07T17:12:42.662Z,13.94
2018-04-07T17:15:11.644Z,14.04
2018-04-07T17:17:40.677Z,14.04
2018-04-07T17:20:09.858Z,13.75
2018-04-07T17:22:39.158Z,13.79
2018-04-07T17:25:08.158Z,13.90
2018-04-07T17:27:37.112Z,14.00
2018-04-07T17:30:06.237Z,13.90
2018-04-07T17:32:35.186Z,13.77
2018-04-07T17:35:04.168Z,13.87
2018-04-07T17:37:33.248Z,13.88
2018-04-07T17:40:02.338Z,13.96
2018-04-07T17:42:31.339Z,13.90
2018-04-07T17:45:00.413Z,13.83
2018-04-07T17:47:29.712Z,13.95
2018-04-07T17:49:58.939Z,13.88
2018-04-07T17:52:28.261Z,13.85
2018-04-07T17:54:57.203Z,13.86
2018-04-07T17:57:26.257Z,13.83
2018-04-07T17:59:55.293Z,13.96
2018-04-07T18:02:24.358Z,13.75
2018-04-07T18:04:53.406Z,13.60
2018-04-07T18:07:22.363Z,13.55
2018-04-07T18:09:51.367Z,13.60
2018-04-07T18:12:20.449Z,13.55
2018-04-07T18:14:49.551Z,13.48
2018-04-07T18:17:18.571Z,13.62
2018-04-07T18:19:47.791Z,13.86
2018-04-07T18:22:16.899Z,13.82
2018-04-07T18:24:46.099Z,13.58
2018-04-07T18:27:15.103Z,13.83
2018-04-07T18:29:44.830Z,14.01
2018-04-07T18:32:14.111Z,13.76
2018-04-07T18:34:43.337Z,13.90
2018-04-07T18:37:12.396Z,13.75
2018-04-07T18:39:41.501Z,13.70
2018-04-07T18:42:10.526Z,13.26
2018-04-07T18:44:39.619Z,13.32
2018-04-07T18:47:08.761Z,13.42
2018-04-07T18:49:37.849Z,13.55
2018-04-07T18:52:07.439Z,13.56
2018-04-07T18:54:36.445Z,13.36
2018-04-07T18:57:05.505Z,13.27
2018-04-07T18:59:34.482Z,13.36
2018-04-07T19:02:03.489Z,13.08
2018-04-07T19:04:32.498Z,13.27
2018-04-07T19:07:01.569Z,13.20
2018-04-07T19:09:30.814Z,13.03
2018-04-07T19:11:59.905Z,13.19
2018-04-07T19:14:28.885Z,12.83
2018-04-07T19:16:57.831Z,12.81
2018-04-07T19:19:26.841Z,12.98
2018-04-07T19:21:56.034Z,12.94
2018-04-07T19:24:25.053Z,12.80
2018-04-07T19:26:54.224Z,12.84
2018-04-07T19:29:23.371Z,13.01
2018-04-07T19:31:52.561Z,13.17
2018-04-07T19:34:21.563Z,13.01
2018-04-07T19:36:50.785Z,13.14
2018-04-07T19:39:19.816Z,13.27
2018-04-07T19:41:49.034Z,13.33
2018-04-07T19:44:18.434Z,13.22
2018-04-07T19:46:47.545Z,13.19
2018-04-07T19:49:16.656Z,13.05
2018-04-07T19:51:45.786Z,13.13
2018-04-07T19:54:14.898Z,13.30
2018-04-07T19:56:43.951Z,13.22
2018-04-07T19:59:12.967Z,13.26
2018-04-07T20:01:42.027Z,13.22
2018-04-07T20:04:11.072Z,13.39
2018-04-07T20:06:40.224Z,13.57
2018-04-07T20:09:09.321Z,13.30
2018-04-07T20:11:38.498Z,13.47
2018-04-07T20:14:07.821Z,13.33
2018-04-07T20:16:36.885Z,13.35
2018-04-07T20:19:05.885Z,13.63
2018-04-07T20:21:34.917Z,13.29
2018-04-07T20:24:04.026Z,13.08
2018-04-07T20:26:32.989Z,13.04
2018-04-07T20:29:02.058Z,13.02
2018-04-07T20:31:31.051Z,13.06
2018-04-07T20:33:59.977Z,13.18
2018-04-07T20:36:28.946Z,13.37
2018-04-07T20:38:58.167Z,13.24
2018-04-07T20:41:27.309Z,13.42
2018-04-07T20:43:56.542Z,13.37
2018-04-07T20:46:25.805Z,13.39
2018-04-07T20:48:55.265Z,13.31
2018-04-07T20:51:24.301Z,13.38
2018-04-07T20:53:53.408Z,13.32
2018-04-07T20:56:22.889Z,13.48
2018-04-07T20:58:52.166Z,13.39
2018-04-07T21:01:21.461Z,13.36
2018-04-07T21:03:50.518Z,13.55
2018-04-07T21:06:19.547Z,13.63
2018-04-07T21:08:48.556Z,13.64
2018-04-07T21:11:17.672Z,13.70
2018-04-07T21:13:46.653Z,13.66
2018-04-07T21:16:15.615Z,13.65
2018-04-07T21:18:44.806Z,13.57
2018-04-07T21:21:13.975Z,13.70
2018-04-07T21:23:43.105Z,13.71
2018-04-07T21:26:12.082Z,13.90
2018-04-07T21:28:41.167Z,13.87
2018-04-07T21:31:10.186Z,14.01
2018-04-07T21:33:39.326Z,13.81
2018-04-07T21:36:08.296Z,13.96
2018-04-07T21:38:37.709Z,13.97
2018-04-07T21:41:06.834Z,13.97
2018-04-07T21:43:36.241Z,13.96
2018-04-07T21:46:05.528Z,14.07
2018-04-07T21:48:34.818Z,14.00
2018-04-07T21:51:04.044Z,13.96
2018-04-07T21:53:33.356Z,13.94
2018-04-07T21:56:03.057Z,13.98
2018-04-07T21:58:32.511Z,14.18
2018-04-07T22:01:01.675Z,14.29
2018-04-07T22:03:30.763Z,14.22
2018-04-07T22:05:59.901Z,14.27
2018-04-07T22:08:28.806Z,14.18
2018-04-07T22:10:57.843Z,14.23
2018-04-07T22:13:26.965Z,14.37
2018-04-07T22:15:55.846Z,14.53
2018-04-07T22:18:24.869Z,14.48
2018-04-07T22:20:53.821Z,14.39
2018-04-07T22:23:22.701Z,14.26
2018-04-07T22:25:54.777Z,14.32
2018-04-07T22:28:26.937Z,14.37
2018-04-07T22:30:55.996Z,14.33
2018-04-07T22:33:25.099Z,14.37
2018-04-07T22:35:54.154Z,14.41
2018-04-07T22:38:23.235Z,14.52
2018-04-07T22:40:52.070Z,14.45
2018-04-07T22:43:20.930Z,14.31
2018-04-07T22:45:49.957Z,14.26
2018-04-07T22:48:18.885Z,14.34
2018-04-07T22:50:47.899Z,14.46
2018-04-07T22:53:16.872Z,14.33
2018-04-07T22:55:46.030Z,14.16
2018-04-07T22:58:14.921Z,14.17
2018-04-07T23:00:44.466Z,13.99
2018-04-07T23:03:13.683Z,14.18
2018-04-07T23:05:42.666Z,13.96
2018-04-07T23:08:11.561Z,13.90
2018-04-07T23:10:40.548Z,13.73
2018-04-07T23:13:09.687Z,13.93
2018-04-07T23:15:38.770Z,14.16
2018-04-07T23:18:07.777Z,13.91
2018-04-07T23:20:36.842Z,13.66
2018-04-07T23:23:08.059Z,13.38
2018-04-07T23:25:37.073Z,13.22
2018-04-07T23:28:06.066Z,12.94
2018-04-07T23:30:35.323Z,12.69
2018-04-07T23:33:04.892Z,12.34
2018-04-07T23:35:34.117Z,12.10
2018-04-07T23:38:03.324Z,11.99
2018-04-07T23:40:32.486Z,12.05
2018-04-07T23:43:01.507Z,12.01
2018-04-07T23:45:30.634Z,11.89
2018-04-07T23:47:59.662Z,11.89
2018-04-07T23:50:29.886Z,11.73
2018-04-07T23:52:59.190Z,11.60
2018-04-07T23:55:28.353Z,11.49
2018-04-07T23:57:57.392Z,11.39
